Terminal Aerodrome Forecast
Issued by NWS

Home | Current Version | Previous Version | Text Only | Print | Product List | Glossary On
Versions: 1 2 3 4 5 6 7 8 9 10 11 12 13 14 15 16 17 18
000
FTUS46 KHNX 301150
TAFVIS
TAF
KVIS 301150Z 3012/3112 00000KT 0SM FG OVC001
      TEMPO 3014/3018 1/4SM FG OVC002
     FM301900 VRB03KT 1SM BR OVC004
     FM302100 VRB03KT 3SM HZ SCT250
     FM310400 00000KT 1SM BR SCT003
     FM310600 00000KT 1/4SM FG BKN002
      TEMPO 3108/3112 0SM FG OVC001=

USA.gov is the U.S. government's official web portal to all federal, state and local government web resources and services.